Rollinsford, New Hampshire
Current Conditions -  °F | °C
As of 2:51 PM on Monday 24 Nov 2014 (Local Time) from KDAW Reporting Station
Overcast Overcast  
Wind Chill: 63°   Ceiling: 1600
Heat Index: 63°   Visibility: 10mi
Dew Point: 61°   Wind: 8mph
Humidity: 93%   Direction: 170°S
Pressure: 29.55"   Gusts: NA
Location:  43.24°N, 70.82°W
Report Text: KDAW 241951Z AUTO 17007KT 10SM FEW005 BKN016 OVC023 17/16 A2955 RMK AO2 SLP003 T01720161
Loading
Personal Weather Stations






























Interactive Weather Map New forecast layout! Learn more

10-Day Weather Forecast

Advertisements
Track Severe Weather on mobile